sensor_id;sensor_type;location;lat;lon;timestamp;P1;durP1;ratioP1;P2;durP2;ratioP2
81367;SDS011;70823;50.056;14.398;2023-10-31T00:02:09;5.27;;;3.20;;
81367;SDS011;70823;50.056;14.398;2023-10-31T00:04:34;5.43;;;3.33;;
81367;SDS011;70823;50.056;14.398;2023-10-31T00:07:00;4.80;;;3.90;;
81367;SDS011;70823;50.056;14.398;2023-10-31T00:09:25;4.43;;;3.40;;
81367;SDS011;70823;50.056;14.398;2023-10-31T00:11:50;3.90;;;3.08;;
81367;SDS011;70823;50.056;14.398;2023-10-31T00:14:16;4.57;;;3.17;;
81367;SDS011;70823;50.056;14.398;2023-10-31T00:16:41;4.90;;;3.40;;
81367;SDS011;70823;50.056;14.398;2023-10-31T00:19:06;5.00;;;3.40;;
81367;SDS011;70823;50.056;14.398;2023-10-31T00:21:32;4.90;;;3.55;;
81367;SDS011;70823;50.056;14.398;2023-10-31T00:23:57;4.47;;;3.50;;
81367;SDS011;70823;50.056;14.398;2023-10-31T00:26:22;3.90;;;2.90;;
81367;SDS011;70823;50.056;14.398;2023-10-31T00:28:48;4.53;;;3.30;;
81367;SDS011;70823;50.056;14.398;2023-10-31T00:31:13;5.03;;;3.53;;
81367;SDS011;70823;50.056;14.398;2023-10-31T00:33:39;5.50;;;3.33;;
81367;SDS011;70823;50.056;14.398;2023-10-31T00:36:04;4.07;;;3.15;;
81367;SDS011;70823;50.056;14.398;2023-10-31T00:38:30;4.32;;;3.03;;
81367;SDS011;70823;50.056;14.398;2023-10-31T00:40:55;5.17;;;3.90;;
81367;SDS011;70823;50.056;14.398;2023-10-31T00:43:20;4.63;;;3.00;;
81367;SDS011;70823;50.056;14.398;2023-10-31T00:45:46;5.03;;;3.25;;
81367;SDS011;70823;50.056;14.398;2023-10-31T00:48:11;4.68;;;3.33;;
81367;SDS011;70823;50.056;14.398;2023-10-31T00:50:36;4.50;;;3.40;;
81367;SDS011;70823;50.056;14.398;2023-10-31T00:53:02;4.93;;;3.27;;
81367;SDS011;70823;50.056;14.398;2023-10-31T00:55:27;5.38;;;3.65;;
81367;SDS011;70823;50.056;14.398;2023-10-31T00:57:52;3.93;;;3.00;;
81367;SDS011;70823;50.056;14.398;2023-10-31T01:00:18;4.07;;;3.00;;
81367;SDS011;70823;50.056;14.398;2023-10-31T01:02:43;4.40;;;3.20;;
81367;SDS011;70823;50.056;14.398;2023-10-31T01:05:10;5.27;;;3.20;;
81367;SDS011;70823;50.056;14.398;2023-10-31T01:07:35;4.45;;;2.92;;
81367;SDS011;70823;50.056;14.398;2023-10-31T01:10:01;4.20;;;3.50;;
81367;SDS011;70823;50.056;14.398;2023-10-31T01:12:26;4.80;;;3.55;;
81367;SDS011;70823;50.056;14.398;2023-10-31T01:14:53;3.90;;;3.17;;
81367;SDS011;70823;50.056;14.398;2023-10-31T01:17:19;4.80;;;3.40;;
81367;SDS011;70823;50.056;14.398;2023-10-31T01:19:45;3.93;;;3.00;;
81367;SDS011;70823;50.056;14.398;2023-10-31T01:22:10;4.33;;;2.93;;
81367;SDS011;70823;50.056;14.398;2023-10-31T01:24:35;4.77;;;3.00;;
81367;SDS011;70823;50.056;14.398;2023-10-31T01:27:00;4.90;;;2.90;;
81367;SDS011;70823;50.056;14.398;2023-10-31T01:29:26;4.00;;;3.10;;
81367;SDS011;70823;50.056;14.398;2023-10-31T01:31:51;4.47;;;3.27;;
81367;SDS011;70823;50.056;14.398;2023-10-31T01:34:16;5.60;;;3.43;;
81367;SDS011;70823;50.056;14.398;2023-10-31T01:36:42;4.23;;;2.93;;
81367;SDS011;70823;50.056;14.398;2023-10-31T01:39:07;4.57;;;2.90;;
81367;SDS011;70823;50.056;14.398;2023-10-31T01:41:33;4.55;;;2.92;;
81367;SDS011;70823;50.056;14.398;2023-10-31T01:43:58;4.70;;;2.80;;
81367;SDS011;70823;50.056;14.398;2023-10-31T01:46:23;4.20;;;3.10;;
81367;SDS011;70823;50.056;14.398;2023-10-31T01:48:48;4.07;;;3.17;;
81367;SDS011;70823;50.056;14.398;2023-10-31T01:51:14;5.70;;;3.20;;
81367;SDS011;70823;50.056;14.398;2023-10-31T01:53:39;5.00;;;3.37;;
81367;SDS011;70823;50.056;14.398;2023-10-31T01:56:05;4.57;;;3.00;;
81367;SDS011;70823;50.056;14.398;2023-10-31T01:58:31;4.07;;;3.15;;
81367;SDS011;70823;50.056;14.398;2023-10-31T02:00:59;4.28;;;2.92;;
81367;SDS011;70823;50.056;14.398;2023-10-31T02:03:25;4.13;;;3.30;;
81367;SDS011;70823;50.056;14.398;2023-10-31T02:05:52;3.95;;;2.83;;
81367;SDS011;70823;50.056;14.398;2023-10-31T02:08:17;3.90;;;3.00;;
81367;SDS011;70823;50.056;14.398;2023-10-31T02:10:42;4.70;;;3.17;;
81367;SDS011;70823;50.056;14.398;2023-10-31T02:13:15;5.17;;;3.57;;
81367;SDS011;70823;50.056;14.398;2023-10-31T02:15:41;4.60;;;3.10;;
81367;SDS011;70823;50.056;14.398;2023-10-31T02:18:06;4.32;;;3.15;;
81367;SDS011;70823;50.056;14.398;2023-10-31T02:20:32;5.60;;;3.72;;
81367;SDS011;70823;50.056;14.398;2023-10-31T02:22:57;4.40;;;3.05;;
81367;SDS011;70823;50.056;14.398;2023-10-31T02:25:23;4.17;;;2.80;;
81367;SDS011;70823;50.056;14.398;2023-10-31T02:27:48;3.60;;;3.00;;
81367;SDS011;70823;50.056;14.398;2023-10-31T02:30:13;3.67;;;2.75;;
81367;SDS011;70823;50.056;14.398;2023-10-31T02:32:39;4.47;;;2.80;;
81367;SDS011;70823;50.056;14.398;2023-10-31T02:35:05;4.55;;;3.67;;
81367;SDS011;70823;50.056;14.398;2023-10-31T02:37:31;3.85;;;2.83;;
81367;SDS011;70823;50.056;14.398;2023-10-31T02:39:56;4.30;;;2.90;;
81367;SDS011;70823;50.056;14.398;2023-10-31T02:42:21;4.03;;;2.93;;
81367;SDS011;70823;50.056;14.398;2023-10-31T02:44:46;3.97;;;3.20;;
81367;SDS011;70823;50.056;14.398;2023-10-31T02:47:12;5.20;;;3.20;;
81367;SDS011;70823;50.056;14.398;2023-10-31T02:49:37;3.93;;;3.03;;
81367;SDS011;70823;50.056;14.398;2023-10-31T02:52:02;4.27;;;3.27;;
81367;SDS011;70823;50.056;14.398;2023-10-31T02:54:28;4.68;;;2.90;;
81367;SDS011;70823;50.056;14.398;2023-10-31T02:56:53;3.70;;;2.70;;
81367;SDS011;70823;50.056;14.398;2023-10-31T02:59:18;4.10;;;3.10;;
81367;SDS011;70823;50.056;14.398;2023-10-31T03:01:43;4.63;;;3.00;;
81367;SDS011;70823;50.056;14.398;2023-10-31T03:04:09;5.00;;;2.83;;
81367;SDS011;70823;50.056;14.398;2023-10-31T03:06:34;4.50;;;3.33;;
81367;SDS011;70823;50.056;14.398;2023-10-31T03:08:59;4.73;;;3.00;;
81367;SDS011;70823;50.056;14.398;2023-10-31T03:11:25;4.93;;;3.42;;
81367;SDS011;70823;50.056;14.398;2023-10-31T03:13:51;4.63;;;3.30;;
81367;SDS011;70823;50.056;14.398;2023-10-31T03:16:18;4.35;;;3.45;;
81367;SDS011;70823;50.056;14.398;2023-10-31T03:18:44;4.70;;;3.05;;
81367;SDS011;70823;50.056;14.398;2023-10-31T03:21:10;4.63;;;3.08;;
81367;SDS011;70823;50.056;14.398;2023-10-31T03:23:35;4.23;;;3.00;;
81367;SDS011;70823;50.056;14.398;2023-10-31T03:26:00;3.70;;;2.93;;
81367;SDS011;70823;50.056;14.398;2023-10-31T03:28:26;3.65;;;2.70;;
81367;SDS011;70823;50.056;14.398;2023-10-31T03:30:52;4.80;;;3.05;;
81367;SDS011;70823;50.056;14.398;2023-10-31T03:33:17;4.13;;;2.90;;
81367;SDS011;70823;50.056;14.398;2023-10-31T03:35:43;3.87;;;2.80;;
81367;SDS011;70823;50.056;14.398;2023-10-31T03:38:08;3.53;;;2.72;;
81367;SDS011;70823;50.056;14.398;2023-10-31T03:40:34;3.97;;;2.60;;
81367;SDS011;70823;50.056;14.398;2023-10-31T03:42:59;4.87;;;2.90;;
81367;SDS011;70823;50.056;14.398;2023-10-31T03:45:25;4.83;;;3.03;;
81367;SDS011;70823;50.056;14.398;2023-10-31T03:47:51;4.38;;;3.15;;
81367;SDS011;70823;50.056;14.398;2023-10-31T03:50:16;4.57;;;3.07;;
81367;SDS011;70823;50.056;14.398;2023-10-31T03:52:42;3.57;;;2.70;;
81367;SDS011;70823;50.056;14.398;2023-10-31T03:55:07;3.87;;;3.00;;
81367;SDS011;70823;50.056;14.398;2023-10-31T03:57:33;3.88;;;3.05;;
81367;SDS011;70823;50.056;14.398;2023-10-31T03:59:58;4.67;;;3.30;;
81367;SDS011;70823;50.056;14.398;2023-10-31T04:02:24;3.90;;;3.10;;
81367;SDS011;70823;50.056;14.398;2023-10-31T04:04:49;3.70;;;2.87;;
81367;SDS011;70823;50.056;14.398;2023-10-31T04:07:14;4.50;;;3.10;;
81367;SDS011;70823;50.056;14.398;2023-10-31T04:09:40;3.97;;;2.97;;
81367;SDS011;70823;50.056;14.398;2023-10-31T04:12:05;4.05;;;3.03;;
81367;SDS011;70823;50.056;14.398;2023-10-31T04:14:30;3.38;;;2.70;;
81367;SDS011;70823;50.056;14.398;2023-10-31T04:16:56;3.30;;;2.70;;
81367;SDS011;70823;50.056;14.398;2023-10-31T04:19:21;3.50;;;2.80;;
81367;SDS011;70823;50.056;14.398;2023-10-31T04:21:46;3.88;;;2.80;;
81367;SDS011;70823;50.056;14.398;2023-10-31T04:24:12;3.90;;;2.87;;
81367;SDS011;70823;50.056;14.398;2023-10-31T04:26:37;3.80;;;2.77;;
81367;SDS011;70823;50.056;14.398;2023-10-31T04:29:05;3.80;;;2.88;;
81367;SDS011;70823;50.056;14.398;2023-10-31T04:31:30;3.70;;;2.90;;
81367;SDS011;70823;50.056;14.398;2023-10-31T04:33:55;3.53;;;2.80;;
81367;SDS011;70823;50.056;14.398;2023-10-31T04:36:21;3.63;;;2.70;;
81367;SDS011;70823;50.056;14.398;2023-10-31T04:38:46;4.40;;;2.87;;
81367;SDS011;70823;50.056;14.398;2023-10-31T04:41:11;3.57;;;2.50;;
81367;SDS011;70823;50.056;14.398;2023-10-31T04:43:36;4.60;;;2.90;;
81367;SDS011;70823;50.056;14.398;2023-10-31T04:46:02;3.97;;;2.97;;
81367;SDS011;70823;50.056;14.398;2023-10-31T04:48:27;3.88;;;2.50;;
81367;SDS011;70823;50.056;14.398;2023-10-31T04:50:52;3.78;;;2.80;;
81367;SDS011;70823;50.056;14.398;2023-10-31T04:53:18;4.03;;;2.70;;
81367;SDS011;70823;50.056;14.398;2023-10-31T04:55:43;3.17;;;2.37;;
81367;SDS011;70823;50.056;14.398;2023-10-31T04:58:08;3.37;;;2.40;;
81367;SDS011;70823;50.056;14.398;2023-10-31T05:00:34;3.77;;;2.57;;
81367;SDS011;70823;50.056;14.398;2023-10-31T05:02:59;3.43;;;2.33;;
81367;SDS011;70823;50.056;14.398;2023-10-31T05:05:26;3.67;;;2.67;;
81367;SDS011;70823;50.056;14.398;2023-10-31T05:07:51;3.67;;;2.90;;
81367;SDS011;70823;50.056;14.398;2023-10-31T05:10:16;3.63;;;2.43;;
81367;SDS011;70823;50.056;14.398;2023-10-31T05:12:42;4.10;;;2.60;;
81367;SDS011;70823;50.056;14.398;2023-10-31T05:15:07;5.15;;;2.88;;
81367;SDS011;70823;50.056;14.398;2023-10-31T05:17:33;3.40;;;2.47;;
81367;SDS011;70823;50.056;14.398;2023-10-31T05:19:58;4.07;;;2.65;;
81367;SDS011;70823;50.056;14.398;2023-10-31T05:22:24;3.33;;;2.50;;
81367;SDS011;70823;50.056;14.398;2023-10-31T05:24:49;3.83;;;2.80;;
81367;SDS011;70823;50.056;14.398;2023-10-31T05:27:14;4.00;;;2.50;;
81367;SDS011;70823;50.056;14.398;2023-10-31T05:29:39;3.10;;;2.33;;
81367;SDS011;70823;50.056;14.398;2023-10-31T05:32:05;3.70;;;2.67;;
81367;SDS011;70823;50.056;14.398;2023-10-31T05:34:30;3.03;;;2.05;;
81367;SDS011;70823;50.056;14.398;2023-10-31T05:36:55;3.37;;;2.30;;
81367;SDS011;70823;50.056;14.398;2023-10-31T05:39:21;3.05;;;2.20;;
81367;SDS011;70823;50.056;14.398;2023-10-31T05:41:46;3.57;;;2.33;;
81367;SDS011;70823;50.056;14.398;2023-10-31T05:44:11;2.97;;;2.03;;
81367;SDS011;70823;50.056;14.398;2023-10-31T05:46:40;3.97;;;2.23;;
81367;SDS011;70823;50.056;14.398;2023-10-31T05:49:08;3.20;;;2.38;;
81367;SDS011;70823;50.056;14.398;2023-10-31T05:51:35;3.05;;;2.20;;
81367;SDS011;70823;50.056;14.398;2023-10-31T05:54:00;3.45;;;2.10;;
81367;SDS011;70823;50.056;14.398;2023-10-31T05:56:26;3.50;;;2.50;;
81367;SDS011;70823;50.056;14.398;2023-10-31T05:58:51;4.33;;;2.80;;
81367;SDS011;70823;50.056;14.398;2023-10-31T06:01:16;3.63;;;2.23;;
81367;SDS011;70823;50.056;14.398;2023-10-31T06:03:42;3.20;;;2.20;;
81367;SDS011;70823;50.056;14.398;2023-10-31T06:06:08;3.10;;;2.25;;
81367;SDS011;70823;50.056;14.398;2023-10-31T06:08:34;4.05;;;2.20;;
81367;SDS011;70823;50.056;14.398;2023-10-31T06:10:59;3.40;;;2.47;;
81367;SDS011;70823;50.056;14.398;2023-10-31T06:13:25;3.08;;;2.10;;
81367;SDS011;70823;50.056;14.398;2023-10-31T06:15:52;2.90;;;2.10;;
81367;SDS011;70823;50.056;14.398;2023-10-31T06:18:18;3.22;;;1.95;;
81367;SDS011;70823;50.056;14.398;2023-10-31T06:20:44;2.83;;;1.95;;
81367;SDS011;70823;50.056;14.398;2023-10-31T06:23:09;2.90;;;1.90;;
81367;SDS011;70823;50.056;14.398;2023-10-31T06:25:34;2.80;;;2.00;;
81367;SDS011;70823;50.056;14.398;2023-10-31T06:28:00;3.37;;;2.10;;
81367;SDS011;70823;50.056;14.398;2023-10-31T06:30:25;2.70;;;2.00;;
81367;SDS011;70823;50.056;14.398;2023-10-31T06:32:51;2.72;;;1.83;;
81367;SDS011;70823;50.056;14.398;2023-10-31T06:35:17;2.95;;;1.90;;
81367;SDS011;70823;50.056;14.398;2023-10-31T06:37:42;2.47;;;1.70;;
81367;SDS011;70823;50.056;14.398;2023-10-31T06:40:08;2.50;;;1.70;;
81367;SDS011;70823;50.056;14.398;2023-10-31T06:42:34;3.95;;;1.65;;
81367;SDS011;70823;50.056;14.398;2023-10-31T06:45:00;2.45;;;1.27;;
81367;SDS011;70823;50.056;14.398;2023-10-31T06:47:25;1.67;;;1.20;;
81367;SDS011;70823;50.056;14.398;2023-10-31T06:49:50;7.73;;;1.93;;
81367;SDS011;70823;50.056;14.398;2023-10-31T06:52:16;5.10;;;2.23;;
81367;SDS011;70823;50.056;14.398;2023-10-31T06:54:41;3.93;;;1.60;;
81367;SDS011;70823;50.056;14.398;2023-10-31T06:57:06;2.93;;;1.63;;
81367;SDS011;70823;50.056;14.398;2023-10-31T06:59:32;3.17;;;1.60;;
81367;SDS011;70823;50.056;14.398;2023-10-31T07:01:57;5.30;;;1.60;;
81367;SDS011;70823;50.056;14.398;2023-10-31T07:04:22;6.33;;;1.50;;
81367;SDS011;70823;50.056;14.398;2023-10-31T07:06:47;1.97;;;1.17;;
81367;SDS011;70823;50.056;14.398;2023-10-31T07:09:13;3.50;;;1.40;;
81367;SDS011;70823;50.056;14.398;2023-10-31T07:11:39;2.95;;;1.25;;
81367;SDS011;70823;50.056;14.398;2023-10-31T07:14:04;3.40;;;1.40;;
81367;SDS011;70823;50.056;14.398;2023-10-31T07:16:31;3.85;;;1.30;;
81367;SDS011;70823;50.056;14.398;2023-10-31T07:18:57;4.30;;;1.58;;
81367;SDS011;70823;50.056;14.398;2023-10-31T07:21:22;5.13;;;1.77;;
81367;SDS011;70823;50.056;14.398;2023-10-31T07:23:47;3.93;;;1.60;;
81367;SDS011;70823;50.056;14.398;2023-10-31T07:26:12;3.00;;;1.27;;
81367;SDS011;70823;50.056;14.398;2023-10-31T07:28:38;2.50;;;1.20;;
81367;SDS011;70823;50.056;14.398;2023-10-31T07:31:03;5.17;;;2.03;;
81367;SDS011;70823;50.056;14.398;2023-10-31T07:33:29;3.97;;;2.00;;
81367;SDS011;70823;50.056;14.398;2023-10-31T07:35:55;2.40;;;1.47;;
81367;SDS011;70823;50.056;14.398;2023-10-31T07:38:20;3.77;;;1.47;;
81367;SDS011;70823;50.056;14.398;2023-10-31T07:40:45;4.57;;;1.53;;
81367;SDS011;70823;50.056;14.398;2023-10-31T07:43:10;2.40;;;1.40;;
81367;SDS011;70823;50.056;14.398;2023-10-31T07:45:36;2.03;;;1.20;;
81367;SDS011;70823;50.056;14.398;2023-10-31T07:48:01;1.93;;;1.30;;
81367;SDS011;70823;50.056;14.398;2023-10-31T07:50:27;2.55;;;1.30;;
81367;SDS011;70823;50.056;14.398;2023-10-31T07:52:52;1.90;;;1.15;;
81367;SDS011;70823;50.056;14.398;2023-10-31T07:55:18;2.38;;;1.20;;
81367;SDS011;70823;50.056;14.398;2023-10-31T07:57:43;2.47;;;1.35;;
81367;SDS011;70823;50.056;14.398;2023-10-31T08:00:09;2.30;;;1.10;;
81367;SDS011;70823;50.056;14.398;2023-10-31T08:02:36;2.08;;;1.30;;
81367;SDS011;70823;50.056;14.398;2023-10-31T08:05:01;2.55;;;1.48;;
81367;SDS011;70823;50.056;14.398;2023-10-31T08:07:26;2.08;;;1.10;;
81367;SDS011;70823;50.056;14.398;2023-10-31T08:09:55;3.15;;;1.33;;
81367;SDS011;70823;50.056;14.398;2023-10-31T08:12:20;2.38;;;1.17;;
81367;SDS011;70823;50.056;14.398;2023-10-31T08:14:46;1.37;;;1.00;;
81367;SDS011;70823;50.056;14.398;2023-10-31T08:17:11;2.40;;;1.40;;
81367;SDS011;70823;50.056;14.398;2023-10-31T08:19:36;2.47;;;1.27;;
81367;SDS011;70823;50.056;14.398;2023-10-31T08:22:02;3.88;;;1.20;;
81367;SDS011;70823;50.056;14.398;2023-10-31T08:24:27;2.67;;;1.20;;
81367;SDS011;70823;50.056;14.398;2023-10-31T08:26:52;3.10;;;1.42;;
81367;SDS011;70823;50.056;14.398;2023-10-31T08:29:18;2.47;;;1.10;;
81367;SDS011;70823;50.056;14.398;2023-10-31T08:31:43;1.50;;;1.10;;
81367;SDS011;70823;50.056;14.398;2023-10-31T08:34:08;1.73;;;1.27;;
81367;SDS011;70823;50.056;14.398;2023-10-31T08:36:35;2.45;;;1.27;;
81367;SDS011;70823;50.056;14.398;2023-10-31T08:39:00;2.67;;;1.23;;
81367;SDS011;70823;50.056;14.398;2023-10-31T08:41:25;1.27;;;0.93;;
81367;SDS011;70823;50.056;14.398;2023-10-31T08:43:51;2.43;;;1.10;;
81367;SDS011;70823;50.056;14.398;2023-10-31T08:46:16;1.10;;;1.00;;
81367;SDS011;70823;50.056;14.398;2023-10-31T08:48:42;1.48;;;1.13;;
81367;SDS011;70823;50.056;14.398;2023-10-31T08:51:07;1.95;;;1.10;;
81367;SDS011;70823;50.056;14.398;2023-10-31T08:53:32;3.10;;;1.20;;
81367;SDS011;70823;50.056;14.398;2023-10-31T08:55:58;1.43;;;1.00;;
81367;SDS011;70823;50.056;14.398;2023-10-31T08:58:23;2.03;;;1.00;;
81367;SDS011;70823;50.056;14.398;2023-10-31T09:00:48;1.30;;;1.10;;
81367;SDS011;70823;50.056;14.398;2023-10-31T09:03:14;1.00;;;0.90;;
81367;SDS011;70823;50.056;14.398;2023-10-31T09:05:39;1.52;;;1.10;;
81367;SDS011;70823;50.056;14.398;2023-10-31T09:08:05;2.25;;;1.17;;
81367;SDS011;70823;50.056;14.398;2023-10-31T09:10:31;2.05;;;1.00;;
81367;SDS011;70823;50.056;14.398;2023-10-31T09:12:57;2.28;;;1.02;;
81367;SDS011;70823;50.056;14.398;2023-10-31T09:15:23;1.93;;;1.20;;
81367;SDS011;70823;50.056;14.398;2023-10-31T09:17:48;3.58;;;1.20;;
81367;SDS011;70823;50.056;14.398;2023-10-31T09:20:13;1.53;;;1.10;;
81367;SDS011;70823;50.056;14.398;2023-10-31T09:22:39;1.48;;;0.90;;
81367;SDS011;70823;50.056;14.398;2023-10-31T09:25:04;1.77;;;1.25;;
81367;SDS011;70823;50.056;14.398;2023-10-31T09:27:29;2.53;;;1.13;;
81367;SDS011;70823;50.056;14.398;2023-10-31T09:29:55;3.83;;;1.20;;
81367;SDS011;70823;50.056;14.398;2023-10-31T09:32:20;1.97;;;1.13;;
81367;SDS011;70823;50.056;14.398;2023-10-31T09:34:45;1.77;;;1.07;;
81367;SDS011;70823;50.056;14.398;2023-10-31T09:37:10;2.43;;;1.07;;
81367;SDS011;70823;50.056;14.398;2023-10-31T09:39:36;1.70;;;1.00;;
81367;SDS011;70823;50.056;14.398;2023-10-31T09:42:01;1.20;;;1.10;;
81367;SDS011;70823;50.056;14.398;2023-10-31T09:44:26;1.70;;;1.10;;
81367;SDS011;70823;50.056;14.398;2023-10-31T09:46:52;1.50;;;1.10;;
81367;SDS011;70823;50.056;14.398;2023-10-31T09:49:18;1.30;;;0.90;;
81367;SDS011;70823;50.056;14.398;2023-10-31T09:51:43;1.70;;;1.17;;
81367;SDS011;70823;50.056;14.398;2023-10-31T09:54:08;2.47;;;1.30;;
81367;SDS011;70823;50.056;14.398;2023-10-31T09:56:34;1.60;;;1.13;;
81367;SDS011;70823;50.056;14.398;2023-10-31T09:59:00;3.15;;;1.20;;
81367;SDS011;70823;50.056;14.398;2023-10-31T10:01:26;2.08;;;0.90;;
81367;SDS011;70823;50.056;14.398;2023-10-31T10:03:52;2.60;;;1.10;;
81367;SDS011;70823;50.056;14.398;2023-10-31T10:06:18;2.08;;;1.20;;
81367;SDS011;70823;50.056;14.398;2023-10-31T10:08:46;1.80;;;1.10;;
81367;SDS011;70823;50.056;14.398;2023-10-31T10:11:11;0.95;;;0.85;;
81367;SDS011;70823;50.056;14.398;2023-10-31T10:13:37;1.60;;;1.27;;
81367;SDS011;70823;50.056;14.398;2023-10-31T10:16:02;1.80;;;1.00;;
81367;SDS011;70823;50.056;14.398;2023-10-31T10:18:28;1.73;;;1.08;;
81367;SDS011;70823;50.056;14.398;2023-10-31T10:20:56;2.15;;;1.38;;
81367;SDS011;70823;50.056;14.398;2023-10-31T10:23:22;1.77;;;1.13;;
81367;SDS011;70823;50.056;14.398;2023-10-31T10:25:48;1.83;;;1.17;;
81367;SDS011;70823;50.056;14.398;2023-10-31T10:28:14;1.77;;;1.20;;
81367;SDS011;70823;50.056;14.398;2023-10-31T10:30:39;2.72;;;1.20;;
81367;SDS011;70823;50.056;14.398;2023-10-31T10:33:06;1.30;;;0.98;;
81367;SDS011;70823;50.056;14.398;2023-10-31T10:35:31;1.33;;;1.10;;
81367;SDS011;70823;50.056;14.398;2023-10-31T10:37:56;2.80;;;1.03;;
81367;SDS011;70823;50.056;14.398;2023-10-31T10:40:23;2.15;;;1.30;;
81367;SDS011;70823;50.056;14.398;2023-10-31T10:42:49;1.98;;;0.88;;
81367;SDS011;70823;50.056;14.398;2023-10-31T10:45:16;1.25;;;1.00;;
81367;SDS011;70823;50.056;14.398;2023-10-31T10:47:45;1.88;;;0.93;;
81367;SDS011;70823;50.056;14.398;2023-10-31T10:50:12;1.45;;;1.08;;
81367;SDS011;70823;50.056;14.398;2023-10-31T10:52:38;2.35;;;1.13;;
81367;SDS011;70823;50.056;14.398;2023-10-31T10:55:11;1.52;;;1.10;;
81367;SDS011;70823;50.056;14.398;2023-10-31T11:00:33;1.10;;;1.00;;
81367;SDS011;70823;50.056;14.398;2023-10-31T11:02:59;1.83;;;0.93;;
81367;SDS011;70823;50.056;14.398;2023-10-31T11:05:26;1.52;;;1.00;;
81367;SDS011;70823;50.056;14.398;2023-10-31T11:07:52;1.33;;;1.05;;
81367;SDS011;70823;50.056;14.398;2023-10-31T11:10:18;2.03;;;1.20;;
81367;SDS011;70823;50.056;14.398;2023-10-31T11:12:43;1.63;;;1.20;;
81367;SDS011;70823;50.056;14.398;2023-10-31T11:15:09;3.05;;;1.33;;
81367;SDS011;70823;50.056;14.398;2023-10-31T11:17:40;1.52;;;1.10;;
81367;SDS011;70823;50.056;14.398;2023-10-31T11:20:07;1.25;;;1.08;;
81367;SDS011;70823;50.056;14.398;2023-10-31T11:25:09;1.17;;;1.08;;
81367;SDS011;70823;50.056;14.398;2023-10-31T11:27:35;1.30;;;1.17;;
81367;SDS011;70823;50.056;14.398;2023-10-31T11:30:04;1.23;;;1.00;;
81367;SDS011;70823;50.056;14.398;2023-10-31T11:32:31;1.38;;;1.10;;
81367;SDS011;70823;50.056;14.398;2023-10-31T11:34:57;1.73;;;1.30;;
81367;SDS011;70823;50.056;14.398;2023-10-31T11:37:25;1.80;;;1.27;;
81367;SDS011;70823;50.056;14.398;2023-10-31T11:42:43;1.80;;;1.30;;
81367;SDS011;70823;50.056;14.398;2023-10-31T11:45:12;1.52;;;1.20;;
81367;SDS011;70823;50.056;14.398;2023-10-31T11:47:47;1.60;;;1.20;;
81367;SDS011;70823;50.056;14.398;2023-10-31T11:50:13;2.50;;;1.25;;
81367;SDS011;70823;50.056;14.398;2023-10-31T11:52:38;2.10;;;1.30;;
81367;SDS011;70823;50.056;14.398;2023-10-31T11:55:05;2.20;;;1.20;;
81367;SDS011;70823;50.056;14.398;2023-10-31T11:57:34;7.70;;;2.92;;
81367;SDS011;70823;50.056;14.398;2023-10-31T11:59:59;43.00;;;8.83;;
81367;SDS011;70823;50.056;14.398;2023-10-31T12:02:24;41.28;;;10.55;;
81367;SDS011;70823;50.056;14.398;2023-10-31T12:04:50;22.23;;;5.55;;
81367;SDS011;70823;50.056;14.398;2023-10-31T12:07:15;12.77;;;5.83;;
81367;SDS011;70823;50.056;14.398;2023-10-31T12:09:47;17.13;;;5.20;;
81367;SDS011;70823;50.056;14.398;2023-10-31T12:12:13;11.80;;;6.18;;
81367;SDS011;70823;50.056;14.398;2023-10-31T12:14:38;6.35;;;3.35;;
81367;SDS011;70823;50.056;14.398;2023-10-31T12:17:04;8.80;;;3.60;;
81367;SDS011;70823;50.056;14.398;2023-10-31T12:19:31;7.78;;;3.40;;
81367;SDS011;70823;50.056;14.398;2023-10-31T12:21:57;6.45;;;2.65;;
81367;SDS011;70823;50.056;14.398;2023-10-31T12:24:22;6.80;;;2.97;;
81367;SDS011;70823;50.056;14.398;2023-10-31T12:26:48;6.03;;;2.50;;
81367;SDS011;70823;50.056;14.398;2023-10-31T12:29:18;7.75;;;2.58;;
81367;SDS011;70823;50.056;14.398;2023-10-31T12:34:14;5.38;;;2.50;;
81367;SDS011;70823;50.056;14.398;2023-10-31T12:36:40;7.50;;;2.83;;
81367;SDS011;70823;50.056;14.398;2023-10-31T12:39:07;7.32;;;2.45;;
81367;SDS011;70823;50.056;14.398;2023-10-31T12:41:34;4.68;;;2.22;;
81367;SDS011;70823;50.056;14.398;2023-10-31T12:44:00;6.20;;;2.20;;
81367;SDS011;70823;50.056;14.398;2023-10-31T12:48:52;4.63;;;2.30;;
81367;SDS011;70823;50.056;14.398;2023-10-31T12:51:17;5.07;;;2.30;;
81367;SDS011;70823;50.056;14.398;2023-10-31T12:53:47;5.35;;;2.30;;
81367;SDS011;70823;50.056;14.398;2023-10-31T12:56:34;6.20;;;2.00;;
81367;SDS011;70823;50.056;14.398;2023-10-31T12:59:05;4.60;;;2.42;;
81367;SDS011;70823;50.056;14.398;2023-10-31T13:01:33;3.95;;;2.00;;
81367;SDS011;70823;50.056;14.398;2023-10-31T13:04:00;6.07;;;2.50;;
81367;SDS011;70823;50.056;14.398;2023-10-31T13:06:25;4.50;;;1.90;;
81367;SDS011;70823;50.056;14.398;2023-10-31T13:08:51;3.83;;;1.80;;
81367;SDS011;70823;50.056;14.398;2023-10-31T13:11:16;3.33;;;1.80;;
81367;SDS011;70823;50.056;14.398;2023-10-31T13:13:42;4.72;;;2.03;;
81367;SDS011;70823;50.056;14.398;2023-10-31T13:16:07;4.10;;;1.90;;
81367;SDS011;70823;50.056;14.398;2023-10-31T13:18:32;4.63;;;1.90;;
81367;SDS011;70823;50.056;14.398;2023-10-31T13:20:58;2.37;;;1.50;;
81367;SDS011;70823;50.056;14.398;2023-10-31T13:23:23;5.10;;;2.00;;
81367;SDS011;70823;50.056;14.398;2023-10-31T13:25:48;3.33;;;1.70;;
81367;SDS011;70823;50.056;14.398;2023-10-31T13:28:14;4.47;;;2.10;;
81367;SDS011;70823;50.056;14.398;2023-10-31T13:30:39;4.13;;;1.93;;
81367;SDS011;70823;50.056;14.398;2023-10-31T13:33:05;3.08;;;1.65;;
81367;SDS011;70823;50.056;14.398;2023-10-31T13:35:30;3.47;;;1.60;;
81367;SDS011;70823;50.056;14.398;2023-10-31T13:37:57;4.82;;;1.60;;
81367;SDS011;70823;50.056;14.398;2023-10-31T13:40:22;3.57;;;1.73;;
81367;SDS011;70823;50.056;14.398;2023-10-31T13:42:48;3.17;;;1.50;;
81367;SDS011;70823;50.056;14.398;2023-10-31T13:45:13;3.60;;;1.40;;
81367;SDS011;70823;50.056;14.398;2023-10-31T13:47:38;4.32;;;1.80;;
81367;SDS011;70823;50.056;14.398;2023-10-31T13:50:04;5.03;;;1.70;;
81367;SDS011;70823;50.056;14.398;2023-10-31T13:52:30;5.53;;;1.65;;
81367;SDS011;70823;50.056;14.398;2023-10-31T13:54:56;3.80;;;2.03;;
81367;SDS011;70823;50.056;14.398;2023-10-31T13:57:21;4.03;;;1.70;;
81367;SDS011;70823;50.056;14.398;2023-10-31T13:59:46;4.05;;;1.60;;
81367;SDS011;70823;50.056;14.398;2023-10-31T14:02:12;3.65;;;1.60;;
81367;SDS011;70823;50.056;14.398;2023-10-31T14:04:37;3.27;;;1.53;;
81367;SDS011;70823;50.056;14.398;2023-10-31T14:07:03;3.77;;;1.47;;
81367;SDS011;70823;50.056;14.398;2023-10-31T14:09:28;2.90;;;1.50;;
81367;SDS011;70823;50.056;14.398;2023-10-31T14:11:55;3.10;;;1.60;;
81367;SDS011;70823;50.056;14.398;2023-10-31T14:14:20;3.97;;;1.80;;
81367;SDS011;70823;50.056;14.398;2023-10-31T14:16:46;2.55;;;1.33;;
81367;SDS011;70823;50.056;14.398;2023-10-31T14:19:12;2.63;;;1.40;;
81367;SDS011;70823;50.056;14.398;2023-10-31T14:21:38;3.70;;;1.67;;
81367;SDS011;70823;50.056;14.398;2023-10-31T14:24:04;4.10;;;1.60;;
81367;SDS011;70823;50.056;14.398;2023-10-31T14:26:30;2.90;;;1.60;;
81367;SDS011;70823;50.056;14.398;2023-10-31T14:28:57;4.60;;;1.67;;
81367;SDS011;70823;50.056;14.398;2023-10-31T14:31:23;3.30;;;1.42;;
81367;SDS011;70823;50.056;14.398;2023-10-31T14:33:48;2.87;;;1.40;;
81367;SDS011;70823;50.056;14.398;2023-10-31T14:36:13;3.60;;;1.77;;
81367;SDS011;70823;50.056;14.398;2023-10-31T14:38:39;3.80;;;1.58;;